Shaftsburg, Michigan
Current Conditions -  °F | °C
As of 6:53 PM on Monday 20 Oct 2014 (Local Time) from KLAN Reporting Station
Overcast Overcast  
Wind Chill: 55°   Ceiling: 4600
Heat Index: 55°   Visibility: 10mi
Dew Point: 48°   Wind: 9mph
Humidity: 77%   Direction: 320°NW
Pressure: 29.83"   Gusts: NA
Location:  42.8°N, 84.29°W
Report Text: KLAN 202253Z 32008KT 10SM OVC046 13/09 A2983 RMK AO2 SLP105 T01280089
Loading
Personal Weather Stations






























Interactive Weather Map
Tropical Storm Tracking
New forecast layout! Learn more

10-Day Weather Forecast

Advertisements
Track Severe Weather on mobile